sensor_id;sensor_type;location;lat;lon;timestamp;P1;durP1;ratioP1;P2;durP2;ratioP2
42632;SDS011;28261;53.304;-6.284;2023-08-12T00:01:35;9.43;;;1.77;;
42632;SDS011;28261;53.304;-6.284;2023-08-12T00:03:39;8.73;;;2.10;;
42632;SDS011;28261;53.304;-6.284;2023-08-12T00:07:50;13.52;;;1.70;;
42632;SDS011;28261;53.304;-6.284;2023-08-12T00:09:56;5.15;;;1.52;;
42632;SDS011;28261;53.304;-6.284;2023-08-12T00:12:01;8.90;;;1.52;;
42632;SDS011;28261;53.304;-6.284;2023-08-12T00:14:06;9.23;;;1.40;;
42632;SDS011;28261;53.304;-6.284;2023-08-12T00:16:12;11.10;;;1.75;;
42632;SDS011;28261;53.304;-6.284;2023-08-12T00:18:16;8.32;;;1.40;;
42632;SDS011;28261;53.304;-6.284;2023-08-12T00:20:22;8.48;;;1.30;;
42632;SDS011;28261;53.304;-6.284;2023-08-12T00:22:31;15.23;;;1.45;;
42632;SDS011;28261;53.304;-6.284;2023-08-12T00:24:36;10.00;;;1.55;;
42632;SDS011;28261;53.304;-6.284;2023-08-12T00:26:43;9.18;;;2.00;;
42632;SDS011;28261;53.304;-6.284;2023-08-12T00:28:48;11.75;;;1.88;;
42632;SDS011;28261;53.304;-6.284;2023-08-12T00:30:54;9.40;;;2.35;;
42632;SDS011;28261;53.304;-6.284;2023-08-12T00:32:59;9.25;;;1.10;;
42632;SDS011;28261;53.304;-6.284;2023-08-12T00:35:04;8.73;;;1.58;;
42632;SDS011;28261;53.304;-6.284;2023-08-12T00:37:10;6.95;;;1.30;;
42632;SDS011;28261;53.304;-6.284;2023-08-12T00:39:15;7.65;;;1.20;;
42632;SDS011;28261;53.304;-6.284;2023-08-12T00:41:21;7.18;;;1.40;;
42632;SDS011;28261;53.304;-6.284;2023-08-12T00:43:28;8.85;;;1.30;;
42632;SDS011;28261;53.304;-6.284;2023-08-12T00:45:33;6.97;;;1.17;;
42632;SDS011;28261;53.304;-6.284;2023-08-12T00:47:39;9.27;;;1.80;;
42632;SDS011;28261;53.304;-6.284;2023-08-12T00:49:45;10.45;;;1.60;;
42632;SDS011;28261;53.304;-6.284;2023-08-12T00:51:50;9.57;;;1.50;;
42632;SDS011;28261;53.304;-6.284;2023-08-12T00:53:57;12.95;;;1.75;;
42632;SDS011;28261;53.304;-6.284;2023-08-12T00:56:02;8.82;;;1.48;;
42632;SDS011;28261;53.304;-6.284;2023-08-12T00:58:08;7.47;;;1.50;;
42632;SDS011;28261;53.304;-6.284;2023-08-12T01:00:17;8.20;;;1.20;;
42632;SDS011;28261;53.304;-6.284;2023-08-12T01:02:24;11.75;;;2.03;;
42632;SDS011;28261;53.304;-6.284;2023-08-12T01:04:29;8.48;;;1.38;;
42632;SDS011;28261;53.304;-6.284;2023-08-12T01:08:38;5.78;;;1.65;;
42632;SDS011;28261;53.304;-6.284;2023-08-12T01:10:44;10.10;;;1.45;;
42632;SDS011;28261;53.304;-6.284;2023-08-12T01:13:02;10.63;;;2.05;;
42632;SDS011;28261;53.304;-6.284;2023-08-12T01:15:25;9.25;;;1.83;;
42632;SDS011;28261;53.304;-6.284;2023-08-12T01:17:29;8.32;;;1.75;;
42632;SDS011;28261;53.304;-6.284;2023-08-12T01:19:38;11.27;;;1.73;;
42632;SDS011;28261;53.304;-6.284;2023-08-12T01:21:45;9.50;;;1.80;;
42632;SDS011;28261;53.304;-6.284;2023-08-12T01:23:55;10.15;;;1.65;;
42632;SDS011;28261;53.304;-6.284;2023-08-12T01:25:59;11.55;;;1.73;;
42632;SDS011;28261;53.304;-6.284;2023-08-12T01:28:04;7.90;;;1.58;;
42632;SDS011;28261;53.304;-6.284;2023-08-12T01:30:08;10.05;;;1.35;;
42632;SDS011;28261;53.304;-6.284;2023-08-12T01:32:15;8.98;;;1.30;;
42632;SDS011;28261;53.304;-6.284;2023-08-12T01:34:28;10.10;;;1.35;;
42632;SDS011;28261;53.304;-6.284;2023-08-12T01:36:40;8.10;;;1.17;;
42632;SDS011;28261;53.304;-6.284;2023-08-12T01:38:50;9.45;;;1.60;;
42632;SDS011;28261;53.304;-6.284;2023-08-12T01:40:57;4.07;;;1.10;;
42632;SDS011;28261;53.304;-6.284;2023-08-12T01:43:03;10.10;;;1.48;;
42632;SDS011;28261;53.304;-6.284;2023-08-12T01:45:10;9.65;;;1.30;;
42632;SDS011;28261;53.304;-6.284;2023-08-12T01:47:14;8.48;;;1.70;;
42632;SDS011;28261;53.304;-6.284;2023-08-12T01:49:18;6.72;;;1.30;;
42632;SDS011;28261;53.304;-6.284;2023-08-12T01:51:22;12.40;;;1.35;;
42632;SDS011;28261;53.304;-6.284;2023-08-12T01:53:26;8.50;;;1.80;;
42632;SDS011;28261;53.304;-6.284;2023-08-12T01:55:30;9.13;;;1.60;;
42632;SDS011;28261;53.304;-6.284;2023-08-12T01:57:36;9.75;;;1.25;;
42632;SDS011;28261;53.304;-6.284;2023-08-12T01:59:40;6.53;;;1.25;;
42632;SDS011;28261;53.304;-6.284;2023-08-12T02:01:46;10.20;;;1.23;;
42632;SDS011;28261;53.304;-6.284;2023-08-12T02:03:50;6.90;;;1.10;;
42632;SDS011;28261;53.304;-6.284;2023-08-12T02:05:55;9.13;;;1.70;;
42632;SDS011;28261;53.304;-6.284;2023-08-12T02:07:58;6.43;;;1.60;;
42632;SDS011;28261;53.304;-6.284;2023-08-12T02:10:02;8.48;;;1.10;;
42632;SDS011;28261;53.304;-6.284;2023-08-12T02:12:06;4.35;;;0.90;;
42632;SDS011;28261;53.304;-6.284;2023-08-12T02:14:14;7.15;;;0.85;;
42632;SDS011;28261;53.304;-6.284;2023-08-12T02:18:21;4.40;;;0.77;;
42632;SDS011;28261;53.304;-6.284;2023-08-12T02:20:24;6.35;;;0.85;;
42632;SDS011;28261;53.304;-6.284;2023-08-12T02:22:28;2.03;;;0.70;;
42632;SDS011;28261;53.304;-6.284;2023-08-12T02:24:32;3.92;;;0.63;;
42632;SDS011;28261;53.304;-6.284;2023-08-12T02:26:37;4.20;;;0.95;;
42632;SDS011;28261;53.304;-6.284;2023-08-12T02:28:41;5.10;;;0.80;;
42632;SDS011;28261;53.304;-6.284;2023-08-12T02:30:47;6.35;;;0.82;;
42632;SDS011;28261;53.304;-6.284;2023-08-12T02:32:51;5.00;;;0.68;;
42632;SDS011;28261;53.304;-6.284;2023-08-12T02:34:55;2.95;;;0.65;;
42632;SDS011;28261;53.304;-6.284;2023-08-12T02:36:59;6.45;;;0.77;;
42632;SDS011;28261;53.304;-6.284;2023-08-12T02:39:04;5.95;;;1.02;;
42632;SDS011;28261;53.304;-6.284;2023-08-12T02:41:08;9.40;;;0.95;;
42632;SDS011;28261;53.304;-6.284;2023-08-12T02:43:12;2.70;;;0.63;;
42632;SDS011;28261;53.304;-6.284;2023-08-12T02:45:16;4.40;;;0.80;;
42632;SDS011;28261;53.304;-6.284;2023-08-12T02:47:22;2.45;;;1.15;;
42632;SDS011;28261;53.304;-6.284;2023-08-12T02:49:26;2.90;;;0.65;;
42632;SDS011;28261;53.304;-6.284;2023-08-12T02:51:30;4.47;;;0.70;;
42632;SDS011;28261;53.304;-6.284;2023-08-12T02:53:34;2.53;;;0.85;;
42632;SDS011;28261;53.304;-6.284;2023-08-12T02:55:38;4.22;;;0.60;;
42632;SDS011;28261;53.304;-6.284;2023-08-12T02:57:42;3.70;;;1.02;;
42632;SDS011;28261;53.304;-6.284;2023-08-12T02:59:46;3.90;;;0.60;;
42632;SDS011;28261;53.304;-6.284;2023-08-12T03:01:50;4.80;;;1.00;;
42632;SDS011;28261;53.304;-6.284;2023-08-12T03:03:56;3.92;;;0.70;;
42632;SDS011;28261;53.304;-6.284;2023-08-12T03:06:00;4.43;;;0.63;;
42632;SDS011;28261;53.304;-6.284;2023-08-12T03:08:05;4.85;;;0.77;;
42632;SDS011;28261;53.304;-6.284;2023-08-12T03:10:09;3.25;;;0.82;;
42632;SDS011;28261;53.304;-6.284;2023-08-12T03:12:14;7.15;;;0.80;;
42632;SDS011;28261;53.304;-6.284;2023-08-12T03:14:18;5.00;;;0.93;;
42632;SDS011;28261;53.304;-6.284;2023-08-12T03:16:22;3.63;;;0.55;;
42632;SDS011;28261;53.304;-6.284;2023-08-12T03:20:32;3.92;;;0.98;;
42632;SDS011;28261;53.304;-6.284;2023-08-12T03:22:37;5.93;;;1.05;;
42632;SDS011;28261;53.304;-6.284;2023-08-12T03:24:42;3.38;;;0.80;;
42632;SDS011;28261;53.304;-6.284;2023-08-12T03:26:46;6.93;;;0.65;;
42632;SDS011;28261;53.304;-6.284;2023-08-12T03:28:50;6.90;;;0.80;;
42632;SDS011;28261;53.304;-6.284;2023-08-12T03:30:54;3.05;;;0.65;;
42632;SDS011;28261;53.304;-6.284;2023-08-12T03:32:59;4.18;;;0.93;;
42632;SDS011;28261;53.304;-6.284;2023-08-12T03:35:06;4.90;;;0.85;;
42632;SDS011;28261;53.304;-6.284;2023-08-12T03:37:12;3.60;;;0.65;;
42632;SDS011;28261;53.304;-6.284;2023-08-12T03:39:17;8.10;;;1.00;;
42632;SDS011;28261;53.304;-6.284;2023-08-12T03:41:21;3.22;;;0.70;;
42632;SDS011;28261;53.304;-6.284;2023-08-12T03:43:26;5.32;;;0.63;;
42632;SDS011;28261;53.304;-6.284;2023-08-12T03:45:30;5.25;;;0.98;;
42632;SDS011;28261;53.304;-6.284;2023-08-12T03:47:34;6.30;;;1.02;;
42632;SDS011;28261;53.304;-6.284;2023-08-12T03:49:38;4.65;;;1.73;;
42632;SDS011;28261;53.304;-6.284;2023-08-12T03:51:43;6.32;;;0.75;;
42632;SDS011;28261;53.304;-6.284;2023-08-12T03:53:48;4.50;;;0.95;;
42632;SDS011;28261;53.304;-6.284;2023-08-12T03:55:52;4.53;;;0.70;;
42632;SDS011;28261;53.304;-6.284;2023-08-12T03:57:56;5.88;;;0.80;;
42632;SDS011;28261;53.304;-6.284;2023-08-12T04:00:02;7.60;;;0.85;;
42632;SDS011;28261;53.304;-6.284;2023-08-12T04:02:15;5.10;;;1.15;;
42632;SDS011;28261;53.304;-6.284;2023-08-12T04:04:19;5.88;;;0.85;;
42632;SDS011;28261;53.304;-6.284;2023-08-12T04:06:24;5.40;;;0.75;;
42632;SDS011;28261;53.304;-6.284;2023-08-12T04:08:26;2.35;;;0.73;;
42632;SDS011;28261;53.304;-6.284;2023-08-12T04:10:32;4.50;;;1.10;;
42632;SDS011;28261;53.304;-6.284;2023-08-12T04:12:36;4.15;;;0.82;;
42632;SDS011;28261;53.304;-6.284;2023-08-12T04:14:40;4.35;;;1.42;;
42632;SDS011;28261;53.304;-6.284;2023-08-12T04:16:44;7.18;;;1.00;;
42632;SDS011;28261;53.304;-6.284;2023-08-12T04:18:51;5.85;;;1.00;;
42632;SDS011;28261;53.304;-6.284;2023-08-12T04:20:55;2.33;;;0.80;;
42632;SDS011;28261;53.304;-6.284;2023-08-12T04:22:59;5.28;;;0.65;;
42632;SDS011;28261;53.304;-6.284;2023-08-12T04:25:05;4.25;;;0.80;;
42632;SDS011;28261;53.304;-6.284;2023-08-12T04:27:11;3.65;;;0.80;;
42632;SDS011;28261;53.304;-6.284;2023-08-12T04:29:16;1.98;;;0.70;;
42632;SDS011;28261;53.304;-6.284;2023-08-12T04:31:21;3.03;;;0.65;;
42632;SDS011;28261;53.304;-6.284;2023-08-12T04:33:25;4.47;;;0.80;;
42632;SDS011;28261;53.304;-6.284;2023-08-12T04:35:31;5.32;;;1.45;;
42632;SDS011;28261;53.304;-6.284;2023-08-12T04:37:35;6.53;;;0.80;;
42632;SDS011;28261;53.304;-6.284;2023-08-12T04:39:40;5.47;;;1.00;;
42632;SDS011;28261;53.304;-6.284;2023-08-12T04:41:46;4.50;;;0.82;;
42632;SDS011;28261;53.304;-6.284;2023-08-12T04:43:52;6.63;;;1.10;;
42632;SDS011;28261;53.304;-6.284;2023-08-12T04:46:01;4.60;;;0.90;;
42632;SDS011;28261;53.304;-6.284;2023-08-12T04:48:06;4.35;;;0.90;;
42632;SDS011;28261;53.304;-6.284;2023-08-12T04:50:11;7.38;;;0.90;;
42632;SDS011;28261;53.304;-6.284;2023-08-12T04:52:14;4.32;;;0.52;;
42632;SDS011;28261;53.304;-6.284;2023-08-12T04:54:18;3.97;;;0.65;;
42632;SDS011;28261;53.304;-6.284;2023-08-12T04:56:23;5.38;;;0.82;;
42632;SDS011;28261;53.304;-6.284;2023-08-12T04:58:31;12.27;;;1.35;;
42632;SDS011;28261;53.304;-6.284;2023-08-12T05:00:36;5.05;;;1.10;;
42632;SDS011;28261;53.304;-6.284;2023-08-12T05:02:40;2.40;;;0.88;;
42632;SDS011;28261;53.304;-6.284;2023-08-12T05:04:47;3.22;;;0.80;;
42632;SDS011;28261;53.304;-6.284;2023-08-12T05:06:52;3.63;;;0.80;;
42632;SDS011;28261;53.304;-6.284;2023-08-12T05:08:58;4.32;;;0.77;;
42632;SDS011;28261;53.304;-6.284;2023-08-12T05:11:04;2.75;;;1.10;;
42632;SDS011;28261;53.304;-6.284;2023-08-12T05:13:09;4.25;;;0.85;;
42632;SDS011;28261;53.304;-6.284;2023-08-12T05:15:13;4.63;;;0.70;;
42632;SDS011;28261;53.304;-6.284;2023-08-12T05:17:18;2.85;;;0.60;;
42632;SDS011;28261;53.304;-6.284;2023-08-12T05:19:22;3.08;;;0.50;;
42632;SDS011;28261;53.304;-6.284;2023-08-12T05:21:26;5.28;;;0.82;;
42632;SDS011;28261;53.304;-6.284;2023-08-12T05:23:30;3.88;;;0.70;;
42632;SDS011;28261;53.304;-6.284;2023-08-12T05:25:34;3.22;;;0.63;;
42632;SDS011;28261;53.304;-6.284;2023-08-12T05:27:37;2.58;;;0.70;;
42632;SDS011;28261;53.304;-6.284;2023-08-12T05:29:41;3.28;;;0.80;;
42632;SDS011;28261;53.304;-6.284;2023-08-12T05:31:45;4.50;;;0.88;;
42632;SDS011;28261;53.304;-6.284;2023-08-12T05:33:51;4.45;;;1.15;;
42632;SDS011;28261;53.304;-6.284;2023-08-12T05:35:55;4.07;;;0.98;;
42632;SDS011;28261;53.304;-6.284;2023-08-12T05:37:59;2.95;;;0.70;;
42632;SDS011;28261;53.304;-6.284;2023-08-12T05:40:04;4.53;;;0.80;;
42632;SDS011;28261;53.304;-6.284;2023-08-12T05:42:10;6.20;;;1.10;;
42632;SDS011;28261;53.304;-6.284;2023-08-12T05:44:15;3.78;;;0.60;;
42632;SDS011;28261;53.304;-6.284;2023-08-12T05:46:19;6.97;;;0.85;;
42632;SDS011;28261;53.304;-6.284;2023-08-12T05:48:23;8.27;;;1.02;;
42632;SDS011;28261;53.304;-6.284;2023-08-12T05:50:28;3.85;;;0.90;;
42632;SDS011;28261;53.304;-6.284;2023-08-12T05:52:32;3.28;;;0.73;;
42632;SDS011;28261;53.304;-6.284;2023-08-12T05:54:36;2.67;;;0.63;;
42632;SDS011;28261;53.304;-6.284;2023-08-12T05:56:40;4.47;;;0.88;;
42632;SDS011;28261;53.304;-6.284;2023-08-12T05:58:44;7.03;;;1.10;;
42632;SDS011;28261;53.304;-6.284;2023-08-12T06:00:48;3.17;;;0.82;;
42632;SDS011;28261;53.304;-6.284;2023-08-12T06:02:52;4.88;;;0.63;;
42632;SDS011;28261;53.304;-6.284;2023-08-12T06:04:56;4.90;;;0.70;;
42632;SDS011;28261;53.304;-6.284;2023-08-12T06:07:02;3.75;;;1.08;;
42632;SDS011;28261;53.304;-6.284;2023-08-12T06:09:05;1.67;;;0.63;;
42632;SDS011;28261;53.304;-6.284;2023-08-12T06:11:09;1.75;;;0.45;;
42632;SDS011;28261;53.304;-6.284;2023-08-12T06:13:13;1.77;;;0.60;;
42632;SDS011;28261;53.304;-6.284;2023-08-12T06:15:17;2.55;;;0.80;;
42632;SDS011;28261;53.304;-6.284;2023-08-12T06:17:21;3.45;;;0.80;;
42632;SDS011;28261;53.304;-6.284;2023-08-12T06:19:25;5.43;;;1.00;;
42632;SDS011;28261;53.304;-6.284;2023-08-12T06:21:29;5.90;;;2.45;;
42632;SDS011;28261;53.304;-6.284;2023-08-12T06:23:34;2.25;;;1.00;;
42632;SDS011;28261;53.304;-6.284;2023-08-12T06:25:38;5.07;;;1.00;;
42632;SDS011;28261;53.304;-6.284;2023-08-12T06:27:42;2.80;;;0.70;;
42632;SDS011;28261;53.304;-6.284;2023-08-12T06:29:46;6.18;;;1.15;;
42632;SDS011;28261;53.304;-6.284;2023-08-12T06:31:51;2.40;;;0.63;;
42632;SDS011;28261;53.304;-6.284;2023-08-12T06:33:54;2.55;;;0.70;;
42632;SDS011;28261;53.304;-6.284;2023-08-12T06:35:58;8.35;;;2.90;;
42632;SDS011;28261;53.304;-6.284;2023-08-12T06:38:02;2.78;;;0.90;;
42632;SDS011;28261;53.304;-6.284;2023-08-12T06:40:08;2.17;;;0.70;;
42632;SDS011;28261;53.304;-6.284;2023-08-12T06:42:12;6.05;;;0.93;;
42632;SDS011;28261;53.304;-6.284;2023-08-12T06:44:16;2.33;;;0.50;;
42632;SDS011;28261;53.304;-6.284;2023-08-12T06:46:18;2.55;;;0.60;;
42632;SDS011;28261;53.304;-6.284;2023-08-12T06:48:25;2.58;;;0.60;;
42632;SDS011;28261;53.304;-6.284;2023-08-12T06:50:29;2.55;;;0.63;;
42632;SDS011;28261;53.304;-6.284;2023-08-12T06:52:35;2.25;;;0.65;;
42632;SDS011;28261;53.304;-6.284;2023-08-12T06:54:38;3.25;;;0.68;;
42632;SDS011;28261;53.304;-6.284;2023-08-12T06:56:43;2.80;;;0.73;;
42632;SDS011;28261;53.304;-6.284;2023-08-12T06:58:47;2.80;;;0.70;;
42632;SDS011;28261;53.304;-6.284;2023-08-12T07:00:50;2.78;;;0.70;;
42632;SDS011;28261;53.304;-6.284;2023-08-12T07:02:55;3.40;;;0.60;;
42632;SDS011;28261;53.304;-6.284;2023-08-12T07:04:59;3.03;;;0.60;;
42632;SDS011;28261;53.304;-6.284;2023-08-12T07:07:03;3.63;;;0.60;;
42632;SDS011;28261;53.304;-6.284;2023-08-12T07:09:07;2.63;;;0.63;;
42632;SDS011;28261;53.304;-6.284;2023-08-12T07:11:11;5.07;;;1.20;;
42632;SDS011;28261;53.304;-6.284;2023-08-12T07:13:16;2.80;;;0.77;;
42632;SDS011;28261;53.304;-6.284;2023-08-12T07:15:20;2.83;;;0.63;;
42632;SDS011;28261;53.304;-6.284;2023-08-12T07:17:23;3.42;;;0.60;;
42632;SDS011;28261;53.304;-6.284;2023-08-12T07:19:27;2.05;;;0.50;;
42632;SDS011;28261;53.304;-6.284;2023-08-12T07:21:29;2.88;;;0.75;;
42632;SDS011;28261;53.304;-6.284;2023-08-12T07:23:34;3.33;;;0.63;;
42632;SDS011;28261;53.304;-6.284;2023-08-12T07:25:37;3.65;;;0.60;;
42632;SDS011;28261;53.304;-6.284;2023-08-12T07:29:50;3.92;;;0.77;;
42632;SDS011;28261;53.304;-6.284;2023-08-12T07:31:55;2.08;;;0.52;;
42632;SDS011;28261;53.304;-6.284;2023-08-12T07:36:08;3.05;;;0.65;;
42632;SDS011;28261;53.304;-6.284;2023-08-12T07:38:12;2.92;;;0.73;;
42632;SDS011;28261;53.304;-6.284;2023-08-12T07:40:17;2.90;;;0.65;;
42632;SDS011;28261;53.304;-6.284;2023-08-12T07:42:21;2.03;;;0.43;;
42632;SDS011;28261;53.304;-6.284;2023-08-12T07:44:26;2.10;;;0.40;;
42632;SDS011;28261;53.304;-6.284;2023-08-12T07:46:32;2.83;;;0.40;;
42632;SDS011;28261;53.304;-6.284;2023-08-12T07:48:37;2.15;;;0.60;;
42632;SDS011;28261;53.304;-6.284;2023-08-12T07:50:41;2.38;;;0.43;;
42632;SDS011;28261;53.304;-6.284;2023-08-12T07:52:47;1.58;;;0.40;;
42632;SDS011;28261;53.304;-6.284;2023-08-12T07:54:56;0.40;;;0.22;;
42632;SDS011;28261;53.304;-6.284;2023-08-12T07:57:03;0.57;;;0.50;;
42632;SDS011;28261;53.304;-6.284;2023-08-12T07:59:10;0.95;;;0.20;;
42632;SDS011;28261;53.304;-6.284;2023-08-12T08:01:21;0.63;;;0.25;;
42632;SDS011;28261;53.304;-6.284;2023-08-12T08:03:28;0.85;;;0.20;;
42632;SDS011;28261;53.304;-6.284;2023-08-12T08:05:40;1.80;;;0.32;;
42632;SDS011;28261;53.304;-6.284;2023-08-12T08:09:57;2.78;;;0.30;;
42632;SDS011;28261;53.304;-6.284;2023-08-12T08:12:16;1.38;;;0.38;;
42632;SDS011;28261;53.304;-6.284;2023-08-12T08:14:22;1.33;;;0.20;;
42632;SDS011;28261;53.304;-6.284;2023-08-12T08:16:27;0.85;;;0.30;;
42632;SDS011;28261;53.304;-6.284;2023-08-12T08:18:35;1.27;;;0.43;;
42632;SDS011;28261;53.304;-6.284;2023-08-12T08:20:41;1.52;;;0.30;;
42632;SDS011;28261;53.304;-6.284;2023-08-12T08:22:47;0.57;;;0.20;;
42632;SDS011;28261;53.304;-6.284;2023-08-12T08:24:50;1.17;;;0.28;;
42632;SDS011;28261;53.304;-6.284;2023-08-12T08:26:55;1.88;;;0.32;;
42632;SDS011;28261;53.304;-6.284;2023-08-12T08:28:59;1.50;;;0.30;;
42632;SDS011;28261;53.304;-6.284;2023-08-12T08:31:03;2.20;;;0.40;;
42632;SDS011;28261;53.304;-6.284;2023-08-12T08:33:08;0.52;;;0.50;;
42632;SDS011;28261;53.304;-6.284;2023-08-12T08:35:14;2.13;;;0.70;;
42632;SDS011;28261;53.304;-6.284;2023-08-12T08:37:18;2.80;;;0.40;;
42632;SDS011;28261;53.304;-6.284;2023-08-12T08:39:22;0.82;;;0.35;;
42632;SDS011;28261;53.304;-6.284;2023-08-12T08:41:26;1.23;;;0.32;;
42632;SDS011;28261;53.304;-6.284;2023-08-12T08:43:34;1.20;;;0.43;;
42632;SDS011;28261;53.304;-6.284;2023-08-12T08:45:40;1.00;;;0.40;;
42632;SDS011;28261;53.304;-6.284;2023-08-12T08:47:47;2.60;;;0.60;;
42632;SDS011;28261;53.304;-6.284;2023-08-12T08:49:53;3.65;;;0.60;;
42632;SDS011;28261;53.304;-6.284;2023-08-12T08:51:59;0.88;;;0.50;;
42632;SDS011;28261;53.304;-6.284;2023-08-12T08:54:04;0.73;;;0.35;;
42632;SDS011;28261;53.304;-6.284;2023-08-12T08:58:16;0.68;;;0.30;;
42632;SDS011;28261;53.304;-6.284;2023-08-12T09:00:23;1.67;;;0.50;;
42632;SDS011;28261;53.304;-6.284;2023-08-12T09:02:28;1.92;;;0.30;;
42632;SDS011;28261;53.304;-6.284;2023-08-12T09:04:33;2.17;;;0.50;;
42632;SDS011;28261;53.304;-6.284;2023-08-12T09:06:38;2.83;;;0.47;;
42632;SDS011;28261;53.304;-6.284;2023-08-12T09:10:49;1.50;;;0.30;;
42632;SDS011;28261;53.304;-6.284;2023-08-12T09:12:53;1.63;;;0.47;;
42632;SDS011;28261;53.304;-6.284;2023-08-12T09:14:59;0.90;;;0.30;;
42632;SDS011;28261;53.304;-6.284;2023-08-12T09:17:03;1.48;;;0.30;;
42632;SDS011;28261;53.304;-6.284;2023-08-12T09:19:11;1.75;;;0.40;;
42632;SDS011;28261;53.304;-6.284;2023-08-12T09:21:16;1.98;;;0.47;;
42632;SDS011;28261;53.304;-6.284;2023-08-12T09:23:21;0.40;;;0.25;;
42632;SDS011;28261;53.304;-6.284;2023-08-12T09:25:27;1.27;;;0.50;;
42632;SDS011;28261;53.304;-6.284;2023-08-12T09:27:32;2.70;;;0.52;;
42632;SDS011;28261;53.304;-6.284;2023-08-12T09:29:37;1.98;;;0.40;;
42632;SDS011;28261;53.304;-6.284;2023-08-12T09:31:42;1.10;;;0.47;;
42632;SDS011;28261;53.304;-6.284;2023-08-12T09:33:47;1.52;;;0.47;;
42632;SDS011;28261;53.304;-6.284;2023-08-12T09:35:51;3.53;;;0.50;;
42632;SDS011;28261;53.304;-6.284;2023-08-12T09:37:55;2.05;;;0.40;;
42632;SDS011;28261;53.304;-6.284;2023-08-12T09:40:01;0.70;;;0.65;;
42632;SDS011;28261;53.304;-6.284;2023-08-12T09:42:09;1.23;;;0.30;;
42632;SDS011;28261;53.304;-6.284;2023-08-12T09:44:15;3.60;;;0.40;;
42632;SDS011;28261;53.304;-6.284;2023-08-12T09:46:21;1.13;;;0.30;;
42632;SDS011;28261;53.304;-6.284;2023-08-12T09:48:26;2.60;;;0.60;;
42632;SDS011;28261;53.304;-6.284;2023-08-12T09:52:35;2.75;;;0.80;;
42632;SDS011;28261;53.304;-6.284;2023-08-12T09:54:39;1.42;;;0.30;;
42632;SDS011;28261;53.304;-6.284;2023-08-12T09:56:46;1.33;;;0.50;;
42632;SDS011;28261;53.304;-6.284;2023-08-12T09:58:54;1.08;;;0.50;;
42632;SDS011;28261;53.304;-6.284;2023-08-12T10:00:59;2.17;;;0.40;;
42632;SDS011;28261;53.304;-6.284;2023-08-12T10:03:05;1.48;;;0.40;;
42632;SDS011;28261;53.304;-6.284;2023-08-12T10:05:09;3.03;;;0.60;;
42632;SDS011;28261;53.304;-6.284;2023-08-12T10:07:16;1.45;;;0.38;;
42632;SDS011;28261;53.304;-6.284;2023-08-12T10:09:22;2.03;;;0.40;;
42632;SDS011;28261;53.304;-6.284;2023-08-12T10:11:28;3.30;;;0.77;;
42632;SDS011;28261;53.304;-6.284;2023-08-12T10:13:32;3.33;;;0.52;;
42632;SDS011;28261;53.304;-6.284;2023-08-12T10:15:38;3.03;;;0.50;;
42632;SDS011;28261;53.304;-6.284;2023-08-12T10:17:42;3.05;;;0.60;;
42632;SDS011;28261;53.304;-6.284;2023-08-12T10:19:47;1.80;;;0.40;;
42632;SDS011;28261;53.304;-6.284;2023-08-12T10:23:58;1.77;;;0.60;;
42632;SDS011;28261;53.304;-6.284;2023-08-12T10:26:02;3.53;;;0.43;;
42632;SDS011;28261;53.304;-6.284;2023-08-12T10:28:09;1.23;;;0.30;;
42632;SDS011;28261;53.304;-6.284;2023-08-12T10:30:14;2.38;;;0.40;;
42632;SDS011;28261;53.304;-6.284;2023-08-12T10:32:20;3.40;;;0.50;;
42632;SDS011;28261;53.304;-6.284;2023-08-12T10:34:25;1.95;;;0.30;;
42632;SDS011;28261;53.304;-6.284;2023-08-12T10:36:31;3.72;;;0.90;;
42632;SDS011;28261;53.304;-6.284;2023-08-12T10:38:41;5.03;;;0.75;;
42632;SDS011;28261;53.304;-6.284;2023-08-12T10:40:50;1.85;;;0.80;;
42632;SDS011;28261;53.304;-6.284;2023-08-12T10:42:54;3.63;;;0.65;;
42632;SDS011;28261;53.304;-6.284;2023-08-12T10:44:58;2.55;;;0.50;;
42632;SDS011;28261;53.304;-6.284;2023-08-12T10:47:05;3.83;;;0.98;;
42632;SDS011;28261;53.304;-6.284;2023-08-12T10:49:13;4.05;;;0.77;;
42632;SDS011;28261;53.304;-6.284;2023-08-12T10:51:18;3.75;;;0.82;;
42632;SDS011;28261;53.304;-6.284;2023-08-12T10:53:42;2.78;;;0.68;;
42632;SDS011;28261;53.304;-6.284;2023-08-12T10:55:53;3.28;;;0.70;;
42632;SDS011;28261;53.304;-6.284;2023-08-12T10:57:58;2.80;;;0.43;;
42632;SDS011;28261;53.304;-6.284;2023-08-12T11:00:02;2.35;;;0.63;;
42632;SDS011;28261;53.304;-6.284;2023-08-12T11:02:07;2.72;;;0.47;;
42632;SDS011;28261;53.304;-6.284;2023-08-12T11:04:18;2.70;;;1.00;;
42632;SDS011;28261;53.304;-6.284;2023-08-12T11:06:22;1.73;;;0.63;;
42632;SDS011;28261;53.304;-6.284;2023-08-12T11:08:26;2.22;;;0.60;;
42632;SDS011;28261;53.304;-6.284;2023-08-12T11:10:32;2.97;;;0.80;;
42632;SDS011;28261;53.304;-6.284;2023-08-12T11:12:38;2.05;;;0.98;;
42632;SDS011;28261;53.304;-6.284;2023-08-12T11:14:48;3.47;;;0.60;;
42632;SDS011;28261;53.304;-6.284;2023-08-12T11:16:55;3.15;;;0.63;;
42632;SDS011;28261;53.304;-6.284;2023-08-12T11:18:59;2.10;;;0.65;;
42632;SDS011;28261;53.304;-6.284;2023-08-12T11:21:04;3.08;;;0.60;;
42632;SDS011;28261;53.304;-6.284;2023-08-12T11:23:09;2.13;;;0.50;;
42632;SDS011;28261;53.304;-6.284;2023-08-12T11:25:13;2.03;;;0.60;;
42632;SDS011;28261;53.304;-6.284;2023-08-12T11:27:21;0.98;;;0.40;;
42632;SDS011;28261;53.304;-6.284;2023-08-12T11:29:24;1.15;;;0.30;;
42632;SDS011;28261;53.304;-6.284;2023-08-12T11:31:28;2.55;;;0.63;;
42632;SDS011;28261;53.304;-6.284;2023-08-12T11:33:32;2.10;;;0.73;;
42632;SDS011;28261;53.304;-6.284;2023-08-12T11:35:36;1.23;;;0.60;;
42632;SDS011;28261;53.304;-6.284;2023-08-12T11:37:42;2.35;;;0.50;;
42632;SDS011;28261;53.304;-6.284;2023-08-12T11:39:48;1.95;;;0.57;;
42632;SDS011;28261;53.304;-6.284;2023-08-12T11:41:55;1.83;;;0.63;;
42632;SDS011;28261;53.304;-6.284;2023-08-12T11:43:59;2.83;;;0.45;;
42632;SDS011;28261;53.304;-6.284;2023-08-12T11:46:04;2.70;;;0.70;;
42632;SDS011;28261;53.304;-6.284;2023-08-12T11:48:07;1.60;;;0.68;;
42632;SDS011;28261;53.304;-6.284;2023-08-12T11:50:12;3.30;;;0.43;;
42632;SDS011;28261;53.304;-6.284;2023-08-12T11:52:16;1.88;;;0.55;;
42632;SDS011;28261;53.304;-6.284;2023-08-12T11:54:22;3.38;;;0.77;;
42632;SDS011;28261;53.304;-6.284;2023-08-12T11:56:28;1.13;;;0.50;;
42632;SDS011;28261;53.304;-6.284;2023-08-12T12:00:54;4.13;;;0.65;;
42632;SDS011;28261;53.304;-6.284;2023-08-12T12:02:59;2.15;;;0.70;;
42632;SDS011;28261;53.304;-6.284;2023-08-12T12:05:11;2.58;;;0.50;;
42632;SDS011;28261;53.304;-6.284;2023-08-12T12:07:18;3.60;;;0.40;;
42632;SDS011;28261;53.304;-6.284;2023-08-12T12:09:26;1.92;;;0.50;;
42632;SDS011;28261;53.304;-6.284;2023-08-12T12:11:33;2.65;;;0.63;;
42632;SDS011;28261;53.304;-6.284;2023-08-12T12:13:37;4.28;;;0.60;;
42632;SDS011;28261;53.304;-6.284;2023-08-12T12:15:41;1.10;;;0.40;;
42632;SDS011;28261;53.304;-6.284;2023-08-12T12:17:46;1.60;;;0.60;;
42632;SDS011;28261;53.304;-6.284;2023-08-12T12:19:52;2.22;;;0.50;;
42632;SDS011;28261;53.304;-6.284;2023-08-12T12:21:58;1.75;;;0.50;;
42632;SDS011;28261;53.304;-6.284;2023-08-12T12:24:06;1.58;;;0.40;;
42632;SDS011;28261;53.304;-6.284;2023-08-12T12:26:14;1.88;;;0.93;;
42632;SDS011;28261;53.304;-6.284;2023-08-12T12:28:19;1.58;;;0.55;;
42632;SDS011;28261;53.304;-6.284;2023-08-12T12:30:23;3.38;;;0.55;;
42632;SDS011;28261;53.304;-6.284;2023-08-12T12:32:27;2.63;;;0.55;;
42632;SDS011;28261;53.304;-6.284;2023-08-12T12:34:32;2.05;;;0.43;;
42632;SDS011;28261;53.304;-6.284;2023-08-12T12:36:36;1.58;;;0.43;;
42632;SDS011;28261;53.304;-6.284;2023-08-12T12:40:44;2.20;;;0.45;;
42632;SDS011;28261;53.304;-6.284;2023-08-12T12:42:50;1.50;;;0.40;;
42632;SDS011;28261;53.304;-6.284;2023-08-12T12:44:55;3.15;;;0.80;;
42632;SDS011;28261;53.304;-6.284;2023-08-12T12:46:59;1.25;;;0.50;;
42632;SDS011;28261;53.304;-6.284;2023-08-12T12:49:04;3.63;;;0.80;;
42632;SDS011;28261;53.304;-6.284;2023-08-12T12:51:08;1.27;;;0.50;;